sensor_id;sensor_type;location;lat;lon;timestamp;P1;durP1;ratioP1;P2;durP2;ratioP2
24443;SDS011;13346;50.984;5.822;2023-09-19T00:00:17;5.03;;;2.53;;
24443;SDS011;13346;50.984;5.822;2023-09-19T00:02:46;6.80;;;2.03;;
24443;SDS011;13346;50.984;5.822;2023-09-19T00:05:18;6.38;;;2.38;;
24443;SDS011;13346;50.984;5.822;2023-09-19T00:07:49;10.52;;;2.40;;
24443;SDS011;13346;50.984;5.822;2023-09-19T00:10:19;5.00;;;2.27;;
24443;SDS011;13346;50.984;5.822;2023-09-19T00:12:49;1.85;;;1.75;;
24443;SDS011;13346;50.984;5.822;2023-09-19T00:15:18;5.13;;;2.22;;
24443;SDS011;13346;50.984;5.822;2023-09-19T00:17:46;5.72;;;2.25;;
24443;SDS011;13346;50.984;5.822;2023-09-19T00:20:14;10.90;;;2.72;;
24443;SDS011;13346;50.984;5.822;2023-09-19T00:22:43;3.88;;;2.63;;
24443;SDS011;13346;50.984;5.822;2023-09-19T00:25:11;4.60;;;2.25;;
24443;SDS011;13346;50.984;5.822;2023-09-19T00:27:40;2.85;;;2.17;;
24443;SDS011;13346;50.984;5.822;2023-09-19T00:30:12;4.30;;;2.30;;
24443;SDS011;13346;50.984;5.822;2023-09-19T00:32:44;7.20;;;2.58;;
24443;SDS011;13346;50.984;5.822;2023-09-19T00:35:12;3.20;;;2.10;;
24443;SDS011;13346;50.984;5.822;2023-09-19T00:37:40;3.30;;;1.73;;
24443;SDS011;13346;50.984;5.822;2023-09-19T00:40:08;6.60;;;1.83;;
24443;SDS011;13346;50.984;5.822;2023-09-19T00:42:37;2.10;;;1.48;;
24443;SDS011;13346;50.984;5.822;2023-09-19T00:45:06;3.60;;;2.08;;
24443;SDS011;13346;50.984;5.822;2023-09-19T00:47:37;2.47;;;2.28;;
24443;SDS011;13346;50.984;5.822;2023-09-19T00:50:06;10.77;;;1.97;;
24443;SDS011;13346;50.984;5.822;2023-09-19T00:52:35;2.53;;;1.37;;
24443;SDS011;13346;50.984;5.822;2023-09-19T00:55:05;5.47;;;2.40;;
24443;SDS011;13346;50.984;5.822;2023-09-19T00:57:33;3.17;;;1.73;;
24443;SDS011;13346;50.984;5.822;2023-09-19T01:00:01;11.93;;;2.67;;
24443;SDS011;13346;50.984;5.822;2023-09-19T01:02:32;2.72;;;2.35;;
24443;SDS011;13346;50.984;5.822;2023-09-19T01:05:00;5.72;;;2.15;;
24443;SDS011;13346;50.984;5.822;2023-09-19T01:07:29;3.60;;;2.00;;
24443;SDS011;13346;50.984;5.822;2023-09-19T01:09:58;4.28;;;2.13;;
24443;SDS011;13346;50.984;5.822;2023-09-19T01:12:28;5.57;;;2.15;;
24443;SDS011;13346;50.984;5.822;2023-09-19T01:15:03;8.53;;;2.33;;
24443;SDS011;13346;50.984;5.822;2023-09-19T01:17:39;1.93;;;1.67;;
24443;SDS011;13346;50.984;5.822;2023-09-19T01:20:17;4.97;;;1.52;;
24443;SDS011;13346;50.984;5.822;2023-09-19T01:22:56;4.78;;;2.30;;
24443;SDS011;13346;50.984;5.822;2023-09-19T01:28:45;8.75;;;2.60;;
24443;SDS011;13346;50.984;5.822;2023-09-19T01:31:22;3.72;;;1.30;;
24443;SDS011;13346;50.984;5.822;2023-09-19T01:33:57;4.20;;;1.70;;
24443;SDS011;13346;50.984;5.822;2023-09-19T01:36:30;5.75;;;2.30;;
24443;SDS011;13346;50.984;5.822;2023-09-19T01:39:02;3.58;;;2.47;;
24443;SDS011;13346;50.984;5.822;2023-09-19T01:44:25;6.30;;;2.03;;
24443;SDS011;13346;50.984;5.822;2023-09-19T01:47:00;9.00;;;2.25;;
24443;SDS011;13346;50.984;5.822;2023-09-19T01:49:33;5.77;;;2.43;;
24443;SDS011;13346;50.984;5.822;2023-09-19T01:52:09;4.80;;;2.00;;
24443;SDS011;13346;50.984;5.822;2023-09-19T01:54:42;9.85;;;2.33;;
24443;SDS011;13346;50.984;5.822;2023-09-19T01:57:17;6.53;;;2.27;;
24443;SDS011;13346;50.984;5.822;2023-09-19T01:59:54;4.43;;;2.00;;
24443;SDS011;13346;50.984;5.822;2023-09-19T02:02:32;5.13;;;2.60;;
24443;SDS011;13346;50.984;5.822;2023-09-19T02:05:01;8.70;;;1.73;;
24443;SDS011;13346;50.984;5.822;2023-09-19T02:07:29;5.17;;;2.00;;
24443;SDS011;13346;50.984;5.822;2023-09-19T02:09:57;1.87;;;1.70;;
24443;SDS011;13346;50.984;5.822;2023-09-19T02:12:25;4.23;;;2.00;;
24443;SDS011;13346;50.984;5.822;2023-09-19T02:14:52;8.30;;;2.43;;
24443;SDS011;13346;50.984;5.822;2023-09-19T02:17:19;4.33;;;2.00;;
24443;SDS011;13346;50.984;5.822;2023-09-19T02:19:48;4.33;;;2.23;;
24443;SDS011;13346;50.984;5.822;2023-09-19T02:22:15;4.37;;;2.20;;
24443;SDS011;13346;50.984;5.822;2023-09-19T02:24:42;6.03;;;2.30;;
24443;SDS011;13346;50.984;5.822;2023-09-19T02:27:11;10.17;;;2.97;;
24443;SDS011;13346;50.984;5.822;2023-09-19T02:29:41;5.47;;;1.83;;
24443;SDS011;13346;50.984;5.822;2023-09-19T02:32:08;6.30;;;2.03;;
24443;SDS011;13346;50.984;5.822;2023-09-19T02:34:35;4.60;;;2.53;;
24443;SDS011;13346;50.984;5.822;2023-09-19T02:37:05;7.60;;;2.03;;
24443;SDS011;13346;50.984;5.822;2023-09-19T02:39:33;3.43;;;2.00;;
24443;SDS011;13346;50.984;5.822;2023-09-19T02:42:01;6.10;;;1.77;;
24443;SDS011;13346;50.984;5.822;2023-09-19T02:44:29;7.77;;;2.67;;
24443;SDS011;13346;50.984;5.822;2023-09-19T02:46:56;7.70;;;1.77;;
24443;SDS011;13346;50.984;5.822;2023-09-19T02:49:23;7.17;;;3.27;;
24443;SDS011;13346;50.984;5.822;2023-09-19T02:51:50;6.17;;;2.27;;
24443;SDS011;13346;50.984;5.822;2023-09-19T02:54:19;11.17;;;3.00;;
24443;SDS011;13346;50.984;5.822;2023-09-19T02:56:47;5.07;;;1.73;;
24443;SDS011;13346;50.984;5.822;2023-09-19T02:59:14;3.67;;;1.90;;
24443;SDS011;13346;50.984;5.822;2023-09-19T03:01:42;6.30;;;2.50;;
24443;SDS011;13346;50.984;5.822;2023-09-19T03:04:13;6.03;;;1.90;;
24443;SDS011;13346;50.984;5.822;2023-09-19T03:06:45;5.47;;;3.03;;
24443;SDS011;13346;50.984;5.822;2023-09-19T03:09:14;8.35;;;2.38;;
24443;SDS011;13346;50.984;5.822;2023-09-19T03:11:43;6.37;;;2.83;;
24443;SDS011;13346;50.984;5.822;2023-09-19T03:14:11;1.70;;;1.60;;
24443;SDS011;13346;50.984;5.822;2023-09-19T03:16:40;2.37;;;2.10;;
24443;SDS011;13346;50.984;5.822;2023-09-19T03:19:09;9.20;;;2.80;;
24443;SDS011;13346;50.984;5.822;2023-09-19T03:21:37;5.63;;;2.75;;
24443;SDS011;13346;50.984;5.822;2023-09-19T03:24:04;7.23;;;3.07;;
24443;SDS011;13346;50.984;5.822;2023-09-19T03:26:32;6.20;;;2.90;;
24443;SDS011;13346;50.984;5.822;2023-09-19T03:29:02;4.30;;;1.80;;
24443;SDS011;13346;50.984;5.822;2023-09-19T03:31:33;4.87;;;2.20;;
24443;SDS011;13346;50.984;5.822;2023-09-19T03:34:02;8.77;;;2.77;;
24443;SDS011;13346;50.984;5.822;2023-09-19T03:36:29;6.67;;;2.47;;
24443;SDS011;13346;50.984;5.822;2023-09-19T03:38:57;6.73;;;2.27;;
24443;SDS011;13346;50.984;5.822;2023-09-19T03:41:24;8.23;;;2.45;;
24443;SDS011;13346;50.984;5.822;2023-09-19T03:43:51;9.17;;;2.70;;
24443;SDS011;13346;50.984;5.822;2023-09-19T03:46:19;7.17;;;2.90;;
24443;SDS011;13346;50.984;5.822;2023-09-19T03:48:46;3.60;;;2.47;;
24443;SDS011;13346;50.984;5.822;2023-09-19T03:51:14;9.73;;;2.20;;
24443;SDS011;13346;50.984;5.822;2023-09-19T03:53:41;8.03;;;2.10;;
24443;SDS011;13346;50.984;5.822;2023-09-19T03:56:08;9.48;;;2.45;;
24443;SDS011;13346;50.984;5.822;2023-09-19T03:58:35;9.20;;;2.15;;
24443;SDS011;13346;50.984;5.822;2023-09-19T04:01:05;10.80;;;2.53;;
24443;SDS011;13346;50.984;5.822;2023-09-19T04:03:34;5.50;;;2.10;;
24443;SDS011;13346;50.984;5.822;2023-09-19T04:06:11;3.53;;;1.80;;
24443;SDS011;13346;50.984;5.822;2023-09-19T04:08:38;2.40;;;1.93;;
24443;SDS011;13346;50.984;5.822;2023-09-19T04:11:05;3.43;;;2.03;;
24443;SDS011;13346;50.984;5.822;2023-09-19T04:13:32;3.53;;;2.30;;
24443;SDS011;13346;50.984;5.822;2023-09-19T04:16:00;9.60;;;2.53;;
24443;SDS011;13346;50.984;5.822;2023-09-19T04:18:27;6.70;;;2.30;;
24443;SDS011;13346;50.984;5.822;2023-09-19T04:20:59;7.97;;;2.40;;
24443;SDS011;13346;50.984;5.822;2023-09-19T04:23:28;6.33;;;2.17;;
24443;SDS011;13346;50.984;5.822;2023-09-19T04:25:56;3.40;;;1.60;;
24443;SDS011;13346;50.984;5.822;2023-09-19T04:28:23;11.20;;;1.90;;
24443;SDS011;13346;50.984;5.822;2023-09-19T04:30:52;6.87;;;2.13;;
24443;SDS011;13346;50.984;5.822;2023-09-19T04:33:20;10.90;;;2.75;;
24443;SDS011;13346;50.984;5.822;2023-09-19T04:35:48;5.57;;;2.03;;
24443;SDS011;13346;50.984;5.822;2023-09-19T04:38:18;13.60;;;3.27;;
24443;SDS011;13346;50.984;5.822;2023-09-19T04:40:45;3.47;;;1.50;;
24443;SDS011;13346;50.984;5.822;2023-09-19T04:43:12;5.90;;;2.07;;
24443;SDS011;13346;50.984;5.822;2023-09-19T04:45:40;4.27;;;1.70;;
24443;SDS011;13346;50.984;5.822;2023-09-19T04:48:07;3.90;;;1.70;;
24443;SDS011;13346;50.984;5.822;2023-09-19T04:50:35;9.57;;;3.77;;
24443;SDS011;13346;50.984;5.822;2023-09-19T04:53:03;5.13;;;1.90;;
24443;SDS011;13346;50.984;5.822;2023-09-19T04:55:31;4.50;;;1.73;;
24443;SDS011;13346;50.984;5.822;2023-09-19T04:57:59;5.07;;;2.13;;
24443;SDS011;13346;50.984;5.822;2023-09-19T05:00:26;4.23;;;2.10;;
24443;SDS011;13346;50.984;5.822;2023-09-19T05:02:56;4.10;;;1.73;;
24443;SDS011;13346;50.984;5.822;2023-09-19T05:05:23;5.10;;;1.80;;
24443;SDS011;13346;50.984;5.822;2023-09-19T05:07:51;4.43;;;1.70;;
24443;SDS011;13346;50.984;5.822;2023-09-19T05:10:19;4.33;;;1.80;;
24443;SDS011;13346;50.984;5.822;2023-09-19T05:12:48;7.13;;;2.10;;
24443;SDS011;13346;50.984;5.822;2023-09-19T05:15:19;9.17;;;2.70;;
24443;SDS011;13346;50.984;5.822;2023-09-19T05:17:49;8.83;;;2.93;;
24443;SDS011;13346;50.984;5.822;2023-09-19T05:20:17;5.57;;;2.80;;
24443;SDS011;13346;50.984;5.822;2023-09-19T05:22:50;6.25;;;2.90;;
24443;SDS011;13346;50.984;5.822;2023-09-19T05:25:23;5.90;;;2.23;;
24443;SDS011;13346;50.984;5.822;2023-09-19T05:27:55;5.60;;;2.10;;
24443;SDS011;13346;50.984;5.822;2023-09-19T05:30:24;4.43;;;2.03;;
24443;SDS011;13346;50.984;5.822;2023-09-19T05:32:52;3.67;;;2.23;;
24443;SDS011;13346;50.984;5.822;2023-09-19T05:35:21;9.13;;;2.30;;
24443;SDS011;13346;50.984;5.822;2023-09-19T05:37:50;4.53;;;1.83;;
24443;SDS011;13346;50.984;5.822;2023-09-19T05:40:17;5.63;;;1.70;;
24443;SDS011;13346;50.984;5.822;2023-09-19T05:42:45;4.87;;;2.40;;
24443;SDS011;13346;50.984;5.822;2023-09-19T05:45:14;7.53;;;3.27;;
24443;SDS011;13346;50.984;5.822;2023-09-19T05:47:44;6.40;;;2.67;;
24443;SDS011;13346;50.984;5.822;2023-09-19T05:50:11;6.47;;;2.47;;
24443;SDS011;13346;50.984;5.822;2023-09-19T05:52:40;5.63;;;2.40;;
24443;SDS011;13346;50.984;5.822;2023-09-19T05:55:09;2.67;;;1.70;;
24443;SDS011;13346;50.984;5.822;2023-09-19T05:57:36;8.00;;;2.30;;
24443;SDS011;13346;50.984;5.822;2023-09-19T06:00:05;7.60;;;2.23;;
24443;SDS011;13346;50.984;5.822;2023-09-19T06:02:37;7.93;;;2.50;;
24443;SDS011;13346;50.984;5.822;2023-09-19T06:05:06;8.93;;;1.90;;
24443;SDS011;13346;50.984;5.822;2023-09-19T06:07:35;2.67;;;1.50;;
24443;SDS011;13346;50.984;5.822;2023-09-19T06:10:03;8.27;;;2.10;;
24443;SDS011;13346;50.984;5.822;2023-09-19T06:12:32;1.97;;;1.30;;
24443;SDS011;13346;50.984;5.822;2023-09-19T06:15:02;6.40;;;1.70;;
24443;SDS011;13346;50.984;5.822;2023-09-19T06:17:33;3.13;;;2.53;;
24443;SDS011;13346;50.984;5.822;2023-09-19T06:20:05;3.87;;;1.60;;
24443;SDS011;13346;50.984;5.822;2023-09-19T06:22:38;8.50;;;2.47;;
24443;SDS011;13346;50.984;5.822;2023-09-19T06:25:07;7.53;;;2.92;;
24443;SDS011;13346;50.984;5.822;2023-09-19T06:27:36;3.70;;;2.23;;
24443;SDS011;13346;50.984;5.822;2023-09-19T06:30:07;8.47;;;2.63;;
24443;SDS011;13346;50.984;5.822;2023-09-19T06:32:36;11.00;;;2.70;;
24443;SDS011;13346;50.984;5.822;2023-09-19T06:35:05;4.90;;;2.10;;
24443;SDS011;13346;50.984;5.822;2023-09-19T06:37:36;9.83;;;2.60;;
24443;SDS011;13346;50.984;5.822;2023-09-19T06:40:05;7.60;;;2.20;;
24443;SDS011;13346;50.984;5.822;2023-09-19T06:42:39;4.67;;;2.07;;
24443;SDS011;13346;50.984;5.822;2023-09-19T06:45:07;7.70;;;2.97;;
24443;SDS011;13346;50.984;5.822;2023-09-19T06:47:37;5.95;;;1.77;;
24443;SDS011;13346;50.984;5.822;2023-09-19T06:50:06;10.40;;;3.45;;
24443;SDS011;13346;50.984;5.822;2023-09-19T06:52:38;6.05;;;2.00;;
24443;SDS011;13346;50.984;5.822;2023-09-19T06:55:06;4.77;;;2.10;;
24443;SDS011;13346;50.984;5.822;2023-09-19T06:57:35;7.10;;;2.38;;
24443;SDS011;13346;50.984;5.822;2023-09-19T07:00:02;10.70;;;2.63;;
24443;SDS011;13346;50.984;5.822;2023-09-19T07:02:34;7.65;;;2.15;;
24443;SDS011;13346;50.984;5.822;2023-09-19T07:05:01;4.70;;;2.23;;
24443;SDS011;13346;50.984;5.822;2023-09-19T07:07:31;4.88;;;2.13;;
24443;SDS011;13346;50.984;5.822;2023-09-19T07:10:00;4.70;;;2.15;;
24443;SDS011;13346;50.984;5.822;2023-09-19T07:12:27;7.68;;;2.22;;
24443;SDS011;13346;50.984;5.822;2023-09-19T07:14:54;13.00;;;2.63;;
24443;SDS011;13346;50.984;5.822;2023-09-19T07:17:21;6.27;;;2.07;;
24443;SDS011;13346;50.984;5.822;2023-09-19T07:19:49;6.57;;;2.38;;
24443;SDS011;13346;50.984;5.822;2023-09-19T07:22:16;5.82;;;2.05;;
24443;SDS011;13346;50.984;5.822;2023-09-19T07:24:45;6.72;;;2.08;;
24443;SDS011;13346;50.984;5.822;2023-09-19T07:27:14;7.40;;;2.15;;
24443;SDS011;13346;50.984;5.822;2023-09-19T07:29:41;6.10;;;2.47;;
24443;SDS011;13346;50.984;5.822;2023-09-19T07:32:08;5.50;;;2.03;;
24443;SDS011;13346;50.984;5.822;2023-09-19T07:34:37;2.78;;;2.45;;
24443;SDS011;13346;50.984;5.822;2023-09-19T07:37:05;3.92;;;1.80;;
24443;SDS011;13346;50.984;5.822;2023-09-19T07:39:33;7.35;;;2.28;;
24443;SDS011;13346;50.984;5.822;2023-09-19T07:42:01;7.07;;;2.80;;
24443;SDS011;13346;50.984;5.822;2023-09-19T07:44:29;6.10;;;1.90;;
24443;SDS011;13346;50.984;5.822;2023-09-19T07:46:56;6.80;;;2.35;;
24443;SDS011;13346;50.984;5.822;2023-09-19T07:49:24;3.10;;;2.38;;
24443;SDS011;13346;50.984;5.822;2023-09-19T07:51:51;6.63;;;2.50;;
24443;SDS011;13346;50.984;5.822;2023-09-19T07:54:20;9.45;;;2.20;;
24443;SDS011;13346;50.984;5.822;2023-09-19T07:56:47;5.65;;;2.20;;
24443;SDS011;13346;50.984;5.822;2023-09-19T07:59:16;5.55;;;1.80;;
24443;SDS011;13346;50.984;5.822;2023-09-19T08:01:43;3.85;;;1.98;;
24443;SDS011;13346;50.984;5.822;2023-09-19T08:04:10;5.75;;;2.38;;
24443;SDS011;13346;50.984;5.822;2023-09-19T08:06:37;2.42;;;2.03;;
24443;SDS011;13346;50.984;5.822;2023-09-19T08:09:05;5.50;;;2.45;;
24443;SDS011;13346;50.984;5.822;2023-09-19T08:11:36;3.42;;;1.98;;
24443;SDS011;13346;50.984;5.822;2023-09-19T08:14:04;4.63;;;2.00;;
24443;SDS011;13346;50.984;5.822;2023-09-19T08:16:34;2.92;;;1.58;;
24443;SDS011;13346;50.984;5.822;2023-09-19T08:19:01;7.10;;;1.65;;
24443;SDS011;13346;50.984;5.822;2023-09-19T08:21:28;5.13;;;1.55;;
24443;SDS011;13346;50.984;5.822;2023-09-19T08:23:55;4.32;;;1.70;;
24443;SDS011;13346;50.984;5.822;2023-09-19T08:26:23;3.55;;;1.85;;
24443;SDS011;13346;50.984;5.822;2023-09-19T08:28:50;3.53;;;1.90;;
24443;SDS011;13346;50.984;5.822;2023-09-19T08:31:18;5.20;;;1.60;;
24443;SDS011;13346;50.984;5.822;2023-09-19T08:33:47;7.40;;;2.75;;
24443;SDS011;13346;50.984;5.822;2023-09-19T08:36:15;4.55;;;2.22;;
24443;SDS011;13346;50.984;5.822;2023-09-19T08:38:42;10.80;;;2.80;;
24443;SDS011;13346;50.984;5.822;2023-09-19T08:41:09;9.90;;;2.13;;
24443;SDS011;13346;50.984;5.822;2023-09-19T08:43:37;7.50;;;1.85;;
24443;SDS011;13346;50.984;5.822;2023-09-19T08:46:07;3.00;;;2.08;;
24443;SDS011;13346;50.984;5.822;2023-09-19T08:48:39;2.45;;;1.70;;
24443;SDS011;13346;50.984;5.822;2023-09-19T08:51:18;5.25;;;2.00;;
24443;SDS011;13346;50.984;5.822;2023-09-19T08:53:54;2.53;;;1.67;;
24443;SDS011;13346;50.984;5.822;2023-09-19T08:56:30;2.97;;;1.25;;
24443;SDS011;13346;50.984;5.822;2023-09-19T08:59:00;6.20;;;2.15;;
24443;SDS011;13346;50.984;5.822;2023-09-19T09:01:29;4.18;;;2.63;;
24443;SDS011;13346;50.984;5.822;2023-09-19T09:03:58;4.75;;;3.13;;
24443;SDS011;13346;50.984;5.822;2023-09-19T09:06:29;6.40;;;2.05;;
24443;SDS011;13346;50.984;5.822;2023-09-19T09:08:57;4.68;;;2.47;;
24443;SDS011;13346;50.984;5.822;2023-09-19T09:11:25;2.65;;;1.50;;
24443;SDS011;13346;50.984;5.822;2023-09-19T09:13:53;4.05;;;1.80;;
24443;SDS011;13346;50.984;5.822;2023-09-19T09:16:21;7.90;;;2.55;;
24443;SDS011;13346;50.984;5.822;2023-09-19T09:18:51;3.60;;;2.00;;
24443;SDS011;13346;50.984;5.822;2023-09-19T09:21:19;7.15;;;2.22;;
24443;SDS011;13346;50.984;5.822;2023-09-19T09:23:48;7.35;;;2.05;;
24443;SDS011;13346;50.984;5.822;2023-09-19T09:26:16;3.75;;;2.38;;
24443;SDS011;13346;50.984;5.822;2023-09-19T09:28:50;3.53;;;2.38;;
24443;SDS011;13346;50.984;5.822;2023-09-19T09:31:23;5.10;;;2.65;;
24443;SDS011;13346;50.984;5.822;2023-09-19T09:33:54;9.02;;;2.38;;
24443;SDS011;13346;50.984;5.822;2023-09-19T09:39:08;7.30;;;3.08;;
24443;SDS011;13346;50.984;5.822;2023-09-19T09:41:43;5.72;;;2.20;;
24443;SDS011;13346;50.984;5.822;2023-09-19T09:44:14;4.40;;;2.38;;
24443;SDS011;13346;50.984;5.822;2023-09-19T09:46:44;7.53;;;2.15;;
24443;SDS011;13346;50.984;5.822;2023-09-19T09:49:26;5.28;;;2.03;;
24443;SDS011;13346;50.984;5.822;2023-09-19T09:51:59;2.90;;;2.08;;
24443;SDS011;13346;50.984;5.822;2023-09-19T09:54:35;4.75;;;1.90;;
24443;SDS011;13346;50.984;5.822;2023-09-19T09:57:03;5.15;;;2.25;;
24443;SDS011;13346;50.984;5.822;2023-09-19T09:59:49;5.68;;;2.35;;
24443;SDS011;13346;50.984;5.822;2023-09-19T10:02:19;4.55;;;2.03;;
24443;SDS011;13346;50.984;5.822;2023-09-19T10:04:51;4.72;;;1.77;;
24443;SDS011;13346;50.984;5.822;2023-09-19T10:07:28;4.35;;;2.03;;
24443;SDS011;13346;50.984;5.822;2023-09-19T10:10:02;9.95;;;2.17;;
24443;SDS011;13346;50.984;5.822;2023-09-19T10:12:42;2.58;;;1.88;;
24443;SDS011;13346;50.984;5.822;2023-09-19T10:15:13;6.65;;;1.98;;
24443;SDS011;13346;50.984;5.822;2023-09-19T10:17:43;6.30;;;2.17;;
24443;SDS011;13346;50.984;5.822;2023-09-19T10:20:15;6.53;;;1.80;;
24443;SDS011;13346;50.984;5.822;2023-09-19T10:23:03;9.10;;;2.00;;
24443;SDS011;13346;50.984;5.822;2023-09-19T10:25:38;2.30;;;1.35;;
24443;SDS011;13346;50.984;5.822;2023-09-19T10:28:06;3.95;;;1.83;;
24443;SDS011;13346;50.984;5.822;2023-09-19T10:30:37;4.55;;;1.60;;
24443;SDS011;13346;50.984;5.822;2023-09-19T10:33:09;7.75;;;2.17;;
24443;SDS011;13346;50.984;5.822;2023-09-19T10:35:37;3.60;;;1.50;;
24443;SDS011;13346;50.984;5.822;2023-09-19T10:38:07;7.78;;;1.83;;
24443;SDS011;13346;50.984;5.822;2023-09-19T10:40:38;8.73;;;2.20;;
24443;SDS011;13346;50.984;5.822;2023-09-19T10:43:11;3.17;;;2.03;;
24443;SDS011;13346;50.984;5.822;2023-09-19T10:45:39;1.52;;;1.30;;
24443;SDS011;13346;50.984;5.822;2023-09-19T10:48:10;7.90;;;1.80;;
24443;SDS011;13346;50.984;5.822;2023-09-19T10:50:41;5.45;;;2.33;;
24443;SDS011;13346;50.984;5.822;2023-09-19T10:53:14;1.85;;;1.75;;
24443;SDS011;13346;50.984;5.822;2023-09-19T10:55:49;3.33;;;2.10;;
24443;SDS011;13346;50.984;5.822;2023-09-19T10:58:28;9.07;;;2.50;;
24443;SDS011;13346;50.984;5.822;2023-09-19T11:00:59;4.90;;;2.67;;
24443;SDS011;13346;50.984;5.822;2023-09-19T11:03:34;4.07;;;2.00;;
24443;SDS011;13346;50.984;5.822;2023-09-19T11:06:09;1.55;;;1.45;;
24443;SDS011;13346;50.984;5.822;2023-09-19T11:11:41;3.08;;;1.67;;
24443;SDS011;13346;50.984;5.822;2023-09-19T11:14:14;3.63;;;1.65;;
24443;SDS011;13346;50.984;5.822;2023-09-19T11:23:19;5.70;;;1.73;;
24443;SDS011;13346;50.984;5.822;2023-09-19T11:25:53;3.70;;;2.03;;
24443;SDS011;13346;50.984;5.822;2023-09-19T11:28:34;3.03;;;1.60;;
24443;SDS011;13346;50.984;5.822;2023-09-19T11:34:39;4.78;;;2.17;;
24443;SDS011;13346;50.984;5.822;2023-09-19T11:40:33;3.67;;;1.92;;
24443;SDS011;13346;50.984;5.822;2023-09-19T11:43:03;2.35;;;1.80;;
24443;SDS011;13346;50.984;5.822;2023-09-19T11:46:09;3.20;;;1.63;;
24443;SDS011;13346;50.984;5.822;2023-09-19T11:48:39;2.30;;;2.10;;
24443;SDS011;13346;50.984;5.822;2023-09-19T11:51:10;3.30;;;1.52;;
24443;SDS011;13346;50.984;5.822;2023-09-19T11:53:45;5.68;;;1.50;;
24443;SDS011;13346;50.984;5.822;2023-09-19T11:56:14;2.17;;;1.52;;
24443;SDS011;13346;50.984;5.822;2023-09-19T11:58:43;1.30;;;1.20;;
24443;SDS011;13346;50.984;5.822;2023-09-19T12:01:21;2.03;;;1.23;;
24443;SDS011;13346;50.984;5.822;2023-09-19T12:03:52;2.85;;;1.30;;
24443;SDS011;13346;50.984;5.822;2023-09-19T12:06:22;3.35;;;1.95;;
24443;SDS011;13346;50.984;5.822;2023-09-19T12:08:49;2.22;;;1.30;;
24443;SDS011;13346;50.984;5.822;2023-09-19T12:11:19;2.53;;;1.73;;
24443;SDS011;13346;50.984;5.822;2023-09-19T12:13:48;2.28;;;1.45;;
24443;SDS011;13346;50.984;5.822;2023-09-19T12:16:20;3.30;;;1.35;;
24443;SDS011;13346;50.984;5.822;2023-09-19T12:18:48;2.85;;;1.65;;
24443;SDS011;13346;50.984;5.822;2023-09-19T12:21:23;4.63;;;1.73;;
24443;SDS011;13346;50.984;5.822;2023-09-19T12:23:58;4.38;;;1.40;;
24443;SDS011;13346;50.984;5.822;2023-09-19T12:26:37;2.03;;;1.13;;
24443;SDS011;13346;50.984;5.822;2023-09-19T12:29:10;1.10;;;1.10;;
24443;SDS011;13346;50.984;5.822;2023-09-19T12:31:51;1.77;;;1.52;;
24443;SDS011;13346;50.984;5.822;2023-09-19T12:34:21;3.30;;;1.52;;
24443;SDS011;13346;50.984;5.822;2023-09-19T12:37:03;1.85;;;1.10;;
24443;SDS011;13346;50.984;5.822;2023-09-19T12:39:41;2.83;;;1.35;;
24443;SDS011;13346;50.984;5.822;2023-09-19T12:42:14;2.55;;;1.40;;
24443;SDS011;13346;50.984;5.822;2023-09-19T12:44:43;1.25;;;1.10;;
24443;SDS011;13346;50.984;5.822;2023-09-19T12:47:13;1.50;;;1.10;;
24443;SDS011;13346;50.984;5.822;2023-09-19T12:50:06;1.92;;;1.10;;
24443;SDS011;13346;50.984;5.822;2023-09-19T12:52:39;2.40;;;0.90;;
24443;SDS011;13346;50.984;5.822;2023-09-19T12:55:18;1.30;;;1.13;;
24443;SDS011;13346;50.984;5.822;2023-09-19T12:57:58;4.75;;;1.00;;
24443;SDS011;13346;50.984;5.822;2023-09-19T13:00:35;1.75;;;1.65;;
24443;SDS011;13346;50.984;5.822;2023-09-19T13:03:17;6.85;;;1.70;;
24443;SDS011;13346;50.984;5.822;2023-09-19T13:05:51;9.95;;;1.42;;
24443;SDS011;13346;50.984;5.822;2023-09-19T13:08:24;1.92;;;1.38;;
24443;SDS011;13346;50.984;5.822;2023-09-19T13:11:04;2.85;;;1.00;;
24443;SDS011;13346;50.984;5.822;2023-09-19T13:13:40;2.08;;;1.00;;
24443;SDS011;13346;50.984;5.822;2023-09-19T13:16:09;1.58;;;1.08;;
24443;SDS011;13346;50.984;5.822;2023-09-19T13:18:45;1.23;;;0.65;;
24443;SDS011;13346;50.984;5.822;2023-09-19T13:21:16;0.93;;;0.85;;
24443;SDS011;13346;50.984;5.822;2023-09-19T13:23:50;1.52;;;1.15;;
24443;SDS011;13346;50.984;5.822;2023-09-19T13:26:19;2.20;;;0.90;;
24443;SDS011;13346;50.984;5.822;2023-09-19T13:28:48;3.95;;;0.82;;
24443;SDS011;13346;50.984;5.822;2023-09-19T13:31:15;2.35;;;1.05;;
24443;SDS011;13346;50.984;5.822;2023-09-19T13:33:45;1.23;;;0.90;;
24443;SDS011;13346;50.984;5.822;2023-09-19T13:36:13;3.90;;;1.10;;
24443;SDS011;13346;50.984;5.822;2023-09-19T13:38:40;1.27;;;1.13;;
24443;SDS011;13346;50.984;5.822;2023-09-19T13:41:09;1.55;;;0.82;;
24443;SDS011;13346;50.984;5.822;2023-09-19T13:43:37;1.52;;;1.10;;
24443;SDS011;13346;50.984;5.822;2023-09-19T13:46:04;1.58;;;0.98;;
24443;SDS011;13346;50.984;5.822;2023-09-19T13:48:37;1.83;;;0.63;;
24443;SDS011;13346;50.984;5.822;2023-09-19T13:51:05;2.67;;;0.70;;
24443;SDS011;13346;50.984;5.822;2023-09-19T13:53:33;4.00;;;1.13;;
24443;SDS011;13346;50.984;5.822;2023-09-19T13:56:00;0.88;;;0.82;;
24443;SDS011;13346;50.984;5.822;2023-09-19T13:58:27;3.72;;;1.00;;
24443;SDS011;13346;50.984;5.822;2023-09-19T14:00:56;2.40;;;1.05;;
24443;SDS011;13346;50.984;5.822;2023-09-19T14:03:25;0.95;;;0.95;;
24443;SDS011;13346;50.984;5.822;2023-09-19T14:05:54;1.85;;;1.13;;
24443;SDS011;13346;50.984;5.822;2023-09-19T14:08:23;1.08;;;0.98;;
24443;SDS011;13346;50.984;5.822;2023-09-19T14:10:50;1.25;;;1.15;;
24443;SDS011;13346;50.984;5.822;2023-09-19T14:13:18;1.95;;;1.00;;
24443;SDS011;13346;50.984;5.822;2023-09-19T14:15:45;1.60;;;1.40;;
24443;SDS011;13346;50.984;5.822;2023-09-19T14:18:13;1.95;;;0.82;;
24443;SDS011;13346;50.984;5.822;2023-09-19T14:20:40;2.63;;;1.35;;
24443;SDS011;13346;50.984;5.822;2023-09-19T14:23:07;1.38;;;0.70;;
24443;SDS011;13346;50.984;5.822;2023-09-19T14:25:36;1.50;;;1.13;;
24443;SDS011;13346;50.984;5.822;2023-09-19T14:28:04;1.55;;;0.80;;
24443;SDS011;13346;50.984;5.822;2023-09-19T14:30:33;1.30;;;0.93;;
24443;SDS011;13346;50.984;5.822;2023-09-19T14:33:02;1.40;;;0.82;;
24443;SDS011;13346;50.984;5.822;2023-09-19T14:35:30;1.48;;;1.10;;
24443;SDS011;13346;50.984;5.822;2023-09-19T14:37:57;2.85;;;1.17;;
24443;SDS011;13346;50.984;5.822;2023-09-19T14:40:24;1.67;;;0.80;;
24443;SDS011;13346;50.984;5.822;2023-09-19T14:42:53;2.83;;;1.17;;
24443;SDS011;13346;50.984;5.822;2023-09-19T14:45:20;1.30;;;0.85;;
24443;SDS011;13346;50.984;5.822;2023-09-19T14:47:48;4.40;;;1.48;;
24443;SDS011;13346;50.984;5.822;2023-09-19T14:50:17;3.03;;;1.50;;
24443;SDS011;13346;50.984;5.822;2023-09-19T14:52:45;1.15;;;1.08;;
24443;SDS011;13346;50.984;5.822;2023-09-19T14:55:12;4.75;;;1.25;;
24443;SDS011;13346;50.984;5.822;2023-09-19T14:57:39;1.35;;;0.75;;
24443;SDS011;13346;50.984;5.822;2023-09-19T15:00:11;0.90;;;0.90;;
24443;SDS011;13346;50.984;5.822;2023-09-19T15:02:39;5.22;;;2.03;;
24443;SDS011;13346;50.984;5.822;2023-09-19T15:05:06;3.65;;;0.88;;
24443;SDS011;13346;50.984;5.822;2023-09-19T15:07:35;1.10;;;0.95;;
24443;SDS011;13346;50.984;5.822;2023-09-19T15:10:03;1.35;;;0.60;;
24443;SDS011;13346;50.984;5.822;2023-09-19T15:12:35;1.80;;;1.00;;
24443;SDS011;13346;50.984;5.822;2023-09-19T15:15:03;2.25;;;1.10;;
24443;SDS011;13346;50.984;5.822;2023-09-19T15:17:35;1.58;;;0.70;;
24443;SDS011;13346;50.984;5.822;2023-09-19T15:20:03;2.28;;;1.10;;
24443;SDS011;13346;50.984;5.822;2023-09-19T15:22:31;5.57;;;1.10;;
24443;SDS011;13346;50.984;5.822;2023-09-19T15:24:59;1.75;;;1.65;;
24443;SDS011;13346;50.984;5.822;2023-09-19T15:27:27;3.72;;;1.70;;
24443;SDS011;13346;50.984;5.822;2023-09-19T15:29:56;3.78;;;1.20;;